sensor_id;sensor_type;location;lat;lon;timestamp;pressure;altitude;pressure_sealevel;temperature;humidity
71361;BME280;59166;48.908;1.870;2022-07-17T00:05:00;101196.47;;;19.95;47.99
71361;BME280;59166;48.908;1.870;2022-07-17T00:15:03;101201.53;;;19.88;48.37
71361;BME280;59166;48.908;1.870;2022-07-17T00:25:05;101202.38;;;19.70;49.69
71361;BME280;59166;48.908;1.870;2022-07-17T00:35:08;101198.47;;;19.57;49.35
71361;BME280;59166;48.908;1.870;2022-07-17T00:45:10;101187.66;;;19.47;49.72
71361;BME280;59166;48.908;1.870;2022-07-17T00:55:13;101183.59;;;19.26;50.23
71361;BME280;59166;48.908;1.870;2022-07-17T01:05:14;101192.09;;;19.06;50.89
71361;BME280;59166;48.908;1.870;2022-07-17T01:15:16;101191.47;;;18.90;51.44
71361;BME280;59166;48.908;1.870;2022-07-17T01:25:21;101179.25;;;18.82;51.72
71361;BME280;59166;48.908;1.870;2022-07-17T01:35:22;101167.75;;;18.62;52.35
71361;BME280;59166;48.908;1.870;2022-07-17T01:45:25;101147.38;;;18.49;52.68
71361;BME280;59166;48.908;1.870;2022-07-17T01:55:25;101137.50;;;18.29;53.45
71361;BME280;59166;48.908;1.870;2022-07-17T02:05:27;101150.72;;;18.22;54.27
71361;BME280;59166;48.908;1.870;2022-07-17T02:15:28;101162.75;;;18.21;55.78
71361;BME280;59166;48.908;1.870;2022-07-17T02:25:32;101160.97;;;18.07;54.70
71361;BME280;59166;48.908;1.870;2022-07-17T02:35:33;101144.53;;;17.83;55.40
71361;BME280;59166;48.908;1.870;2022-07-17T02:45:35;101146.81;;;17.71;55.90
71361;BME280;59166;48.908;1.870;2022-07-17T02:55:36;101148.53;;;17.62;56.24
71361;BME280;59166;48.908;1.870;2022-07-17T03:05:38;101148.47;;;17.38;56.84
71361;BME280;59166;48.908;1.870;2022-07-17T03:15:38;101159.25;;;17.19;57.75
71361;BME280;59166;48.908;1.870;2022-07-17T03:25:41;101166.88;;;17.22;56.95
71361;BME280;59166;48.908;1.870;2022-07-17T03:35:41;101165.28;;;17.11;58.06
71361;BME280;59166;48.908;1.870;2022-07-17T03:45:43;101160.13;;;17.05;57.82
71361;BME280;59166;48.908;1.870;2022-07-17T03:55:44;101173.78;;;17.05;59.23
71361;BME280;59166;48.908;1.870;2022-07-17T04:05:46;101202.59;;;16.72;60.93
71361;BME280;59166;48.908;1.870;2022-07-17T04:15:47;101193.38;;;16.53;61.71
71361;BME280;59166;48.908;1.870;2022-07-17T04:25:49;101205.13;;;16.43;62.14
71361;BME280;59166;48.908;1.870;2022-07-17T04:35:50;101211.47;;;16.18;63.25
71361;BME280;59166;48.908;1.870;2022-07-17T04:45:52;101215.81;;;16.34;63.63
71361;BME280;59166;48.908;1.870;2022-07-17T04:55:53;101222.63;;;16.02;64.14
71361;BME280;59166;48.908;1.870;2022-07-17T05:05:55;101210.38;;;15.99;64.94
71361;BME280;59166;48.908;1.870;2022-07-17T05:15:55;101213.13;;;16.14;64.03
71361;BME280;59166;48.908;1.870;2022-07-17T05:25:57;101215.22;;;16.48;63.85
71361;BME280;59166;48.908;1.870;2022-07-17T05:35:58;101222.28;;;16.64;64.27
71361;BME280;59166;48.908;1.870;2022-07-17T05:46:00;101216.13;;;17.02;60.39
71361;BME280;59166;48.908;1.870;2022-07-17T05:56:01;101229.50;;;17.48;59.30
71361;BME280;59166;48.908;1.870;2022-07-17T06:06:03;101235.34;;;17.75;57.82
71361;BME280;59166;48.908;1.870;2022-07-17T06:16:04;101236.41;;;18.08;57.90
71361;BME280;59166;48.908;1.870;2022-07-17T06:26:06;101222.09;;;18.21;56.68
71361;BME280;59166;48.908;1.870;2022-07-17T06:36:07;101223.72;;;18.51;56.55
71361;BME280;59166;48.908;1.870;2022-07-17T06:46:09;101234.47;;;19.13;53.49
71361;BME280;59166;48.908;1.870;2022-07-17T06:56:10;101236.94;;;19.52;51.90
71361;BME280;59166;48.908;1.870;2022-07-17T07:06:13;101234.44;;;19.88;51.76
71361;BME280;59166;48.908;1.870;2022-07-17T07:16:14;101246.16;;;20.26;51.15
71361;BME280;59166;48.908;1.870;2022-07-17T07:26:16;101237.56;;;20.73;49.35
71361;BME280;59166;48.908;1.870;2022-07-17T07:36:17;101235.06;;;21.04;47.45
71361;BME280;59166;48.908;1.870;2022-07-17T07:46:19;101244.22;;;21.35;46.69
71361;BME280;59166;48.908;1.870;2022-07-17T07:56:19;101257.19;;;21.71;48.13
71361;BME280;59166;48.908;1.870;2022-07-17T08:06:22;101248.88;;;22.29;43.87
71361;BME280;59166;48.908;1.870;2022-07-17T08:16:22;101256.75;;;22.83;43.26
71361;BME280;59166;48.908;1.870;2022-07-17T08:26:25;101258.97;;;23.21;42.15
71361;BME280;59166;48.908;1.870;2022-07-17T08:36:25;101257.88;;;23.73;40.03
71361;BME280;59166;48.908;1.870;2022-07-17T08:46:27;101268.44;;;24.06;39.41
71361;BME280;59166;48.908;1.870;2022-07-17T08:56:28;101256.81;;;24.46;38.83
71361;BME280;59166;48.908;1.870;2022-07-17T09:06:31;101259.66;;;25.05;37.80
71361;BME280;59166;48.908;1.870;2022-07-17T09:16:34;101257.66;;;25.14;34.66
71361;BME280;59166;48.908;1.870;2022-07-17T09:26:43;101252.78;;;25.40;32.47
71361;BME280;59166;48.908;1.870;2022-07-17T09:36:44;101263.91;;;25.94;32.25
71361;BME280;59166;48.908;1.870;2022-07-17T09:46:46;101270.81;;;25.88;31.23
71361;BME280;59166;48.908;1.870;2022-07-17T09:56:50;101267.16;;;26.29;29.95
71361;BME280;59166;48.908;1.870;2022-07-17T10:06:52;101267.59;;;27.24;28.32
71361;BME280;59166;48.908;1.870;2022-07-17T10:16:54;101275.19;;;27.91;27.86
71361;BME280;59166;48.908;1.870;2022-07-17T10:26:56;101265.50;;;28.13;26.95
71361;BME280;59166;48.908;1.870;2022-07-17T10:36:57;101274.63;;;28.41;26.33
71361;BME280;59166;48.908;1.870;2022-07-17T10:47:00;101259.59;;;28.74;26.49
71361;BME280;59166;48.908;1.870;2022-07-17T10:57:01;101263.50;;;29.04;24.55
71361;BME280;59166;48.908;1.870;2022-07-17T11:07:07;101258.91;;;29.12;25.96
71361;BME280;59166;48.908;1.870;2022-07-17T11:17:07;101242.44;;;29.57;24.70
71361;BME280;59166;48.908;1.870;2022-07-17T11:27:12;101237.78;;;29.99;23.64
71361;BME280;59166;48.908;1.870;2022-07-17T11:37:13;101216.28;;;29.62;24.95
71361;BME280;59166;48.908;1.870;2022-07-17T11:47:20;101215.50;;;30.22;23.56
71361;BME280;59166;48.908;1.870;2022-07-17T11:57:22;101209.72;;;30.54;22.72
71361;BME280;59166;48.908;1.870;2022-07-17T12:07:27;101185.72;;;31.28;22.30
71361;BME280;59166;48.908;1.870;2022-07-17T12:17:39;101175.59;;;30.90;22.07
71361;BME280;59166;48.908;1.870;2022-07-17T12:27:42;101174.78;;;30.89;21.84
71361;BME280;59166;48.908;1.870;2022-07-17T12:37:43;101161.66;;;31.49;21.98
71361;BME280;59166;48.908;1.870;2022-07-17T12:47:45;101151.38;;;31.94;20.83
71361;BME280;59166;48.908;1.870;2022-07-17T12:57:45;101141.44;;;32.40;19.52
71361;BME280;59166;48.908;1.870;2022-07-17T13:07:47;101139.44;;;31.97;19.90
71361;BME280;59166;48.908;1.870;2022-07-17T13:17:48;101122.19;;;32.32;19.21
71361;BME280;59166;48.908;1.870;2022-07-17T13:27:50;101114.25;;;32.37;18.81
71361;BME280;59166;48.908;1.870;2022-07-17T13:37:51;101116.56;;;32.83;17.26
71361;BME280;59166;48.908;1.870;2022-07-17T13:47:54;101102.78;;;33.22;17.85
71361;BME280;59166;48.908;1.870;2022-07-17T13:57:54;101087.69;;;33.62;18.34
71361;BME280;59166;48.908;1.870;2022-07-17T14:07:57;101089.25;;;33.56;15.53
71361;BME280;59166;48.908;1.870;2022-07-17T14:17:57;101094.06;;;33.41;15.65
71361;BME280;59166;48.908;1.870;2022-07-17T14:27:59;101084.84;;;33.40;16.82
71361;BME280;59166;48.908;1.870;2022-07-17T14:38:00;101068.50;;;33.71;15.97
71361;BME280;59166;48.908;1.870;2022-07-17T14:48:03;101058.78;;;33.26;17.09
71361;BME280;59166;48.908;1.870;2022-07-17T14:58:03;101043.63;;;33.69;15.86
71361;BME280;59166;48.908;1.870;2022-07-17T15:08:06;101028.47;;;33.77;16.10
71361;BME280;59166;48.908;1.870;2022-07-17T15:18:06;101021.19;;;34.43;16.15
71361;BME280;59166;48.908;1.870;2022-07-17T15:28:09;101010.84;;;34.05;15.20
71361;BME280;59166;48.908;1.870;2022-07-17T15:38:09;101000.38;;;34.37;15.60
71361;BME280;59166;48.908;1.870;2022-07-17T15:48:11;100988.78;;;34.18;15.14
71361;BME280;59166;48.908;1.870;2022-07-17T15:58:12;100983.03;;;34.64;14.74
71361;BME280;59166;48.908;1.870;2022-07-17T16:08:14;100977.84;;;34.62;15.26
71361;BME280;59166;48.908;1.870;2022-07-17T16:18:15;100978.66;;;34.56;15.17
71361;BME280;59166;48.908;1.870;2022-07-17T16:28:17;100965.13;;;34.33;15.82
71361;BME280;59166;48.908;1.870;2022-07-17T16:38:18;100960.38;;;34.02;15.11
71361;BME280;59166;48.908;1.870;2022-07-17T16:48:20;100955.97;;;33.83;14.50
71361;BME280;59166;48.908;1.870;2022-07-17T16:58:20;100946.00;;;33.78;14.77
71361;BME280;59166;48.908;1.870;2022-07-17T17:08:23;100929.97;;;33.72;15.04
71361;BME280;59166;48.908;1.870;2022-07-17T17:18:23;100919.53;;;33.76;15.52
71361;BME280;59166;48.908;1.870;2022-07-17T17:28:26;100909.16;;;33.41;15.77
71361;BME280;59166;48.908;1.870;2022-07-17T17:38:26;100899.47;;;32.99;16.50
71361;BME280;59166;48.908;1.870;2022-07-17T17:48:35;100910.09;;;32.48;20.97
71361;BME280;59166;48.908;1.870;2022-07-17T17:58:35;100899.78;;;31.36;18.87
71361;BME280;59166;48.908;1.870;2022-07-17T18:08:37;100889.78;;;30.91;19.17
71361;BME280;59166;48.908;1.870;2022-07-17T18:18:38;100887.97;;;30.39;21.23
71361;BME280;59166;48.908;1.870;2022-07-17T18:28:40;100887.28;;;29.86;24.09
71361;BME280;59166;48.908;1.870;2022-07-17T18:38:41;100894.19;;;29.24;26.05
71361;BME280;59166;48.908;1.870;2022-07-17T18:48:43;100898.38;;;28.91;23.93
71361;BME280;59166;48.908;1.870;2022-07-17T18:58:44;100911.81;;;28.67;26.09
71361;BME280;59166;48.908;1.870;2022-07-17T19:08:46;100911.28;;;28.61;24.09
71361;BME280;59166;48.908;1.870;2022-07-17T19:18:47;100909.31;;;28.42;25.39
71361;BME280;59166;48.908;1.870;2022-07-17T19:28:49;100904.75;;;28.15;26.07
71361;BME280;59166;48.908;1.870;2022-07-17T19:38:49;100923.19;;;28.04;25.27
71361;BME280;59166;48.908;1.870;2022-07-17T19:48:52;100919.03;;;27.63;25.04
71361;BME280;59166;48.908;1.870;2022-07-17T19:58:53;100930.66;;;27.53;24.81
71361;BME280;59166;48.908;1.870;2022-07-17T20:08:55;100921.78;;;27.32;25.50
71361;BME280;59166;48.908;1.870;2022-07-17T20:18:56;100932.97;;;27.35;25.49
71361;BME280;59166;48.908;1.870;2022-07-17T20:28:58;100939.19;;;27.01;26.55
71361;BME280;59166;48.908;1.870;2022-07-17T20:38:59;100944.41;;;26.63;28.08
71361;BME280;59166;48.908;1.870;2022-07-17T20:49:01;100955.19;;;25.76;30.27
71361;BME280;59166;48.908;1.870;2022-07-17T20:59:02;100952.66;;;25.46;32.59
71361;BME280;59166;48.908;1.870;2022-07-17T21:09:04;100955.28;;;24.98;32.76
71361;BME280;59166;48.908;1.870;2022-07-17T21:19:05;100954.59;;;25.01;31.31
71361;BME280;59166;48.908;1.870;2022-07-17T21:29:07;100954.38;;;25.75;27.97
71361;BME280;59166;48.908;1.870;2022-07-17T21:39:08;100946.41;;;26.10;27.09
71361;BME280;59166;48.908;1.870;2022-07-17T21:49:10;100926.78;;;26.03;28.03
71361;BME280;59166;48.908;1.870;2022-07-17T21:59:11;100917.59;;;25.63;30.78
71361;BME280;59166;48.908;1.870;2022-07-17T22:09:14;100889.28;;;24.96;32.28
71361;BME280;59166;48.908;1.870;2022-07-17T22:19:15;100887.41;;;24.56;32.32
71361;BME280;59166;48.908;1.870;2022-07-17T22:29:18;100889.25;;;24.31;33.19
71361;BME280;59166;48.908;1.870;2022-07-17T22:39:19;100920.69;;;23.59;37.25
71361;BME280;59166;48.908;1.870;2022-07-17T22:49:21;100940.34;;;23.02;36.32
71361;BME280;59166;48.908;1.870;2022-07-17T22:59:22;100933.16;;;23.19;36.82
71361;BME280;59166;48.908;1.870;2022-07-17T23:09:24;100937.41;;;23.16;36.98
71361;BME280;59166;48.908;1.870;2022-07-17T23:19:25;100946.69;;;22.94;39.09
71361;BME280;59166;48.908;1.870;2022-07-17T23:29:27;100948.66;;;22.68;39.83
71361;BME280;59166;48.908;1.870;2022-07-17T23:39:28;100931.66;;;22.58;38.05
71361;BME280;59166;48.908;1.870;2022-07-17T23:49:30;100924.84;;;22.64;37.24
71361;BME280;59166;48.908;1.870;2022-07-17T23:59:31;100924.53;;;22.39;38.22
